createdAt,value
2018-09-18T00:00:16.399Z,22.8
2018-09-18T00:10:18.413Z,22.7
2018-09-18T00:20:19.896Z,22.7
2018-09-18T00:30:21.918Z,22.7
2018-09-18T00:40:23.625Z,22.7
2018-09-18T00:50:25.464Z,22.7
2018-09-18T01:00:27.726Z,22.6
2018-09-18T01:10:29.297Z,22.6
2018-09-18T01:20:34.477Z,22.6
2018-09-18T01:30:36.057Z,22.6
2018-09-18T01:40:37.715Z,22.6
2018-09-18T01:50:39.627Z,22.6
2018-09-18T02:00:41.194Z,22.5
2018-09-18T02:10:43.399Z,22.5
2018-09-18T02:20:45.353Z,22.5
2018-09-18T02:30:48.048Z,22.5
2018-09-18T02:40:50.139Z,22.5
2018-09-18T02:50:51.692Z,22.5
2018-09-18T03:00:53.743Z,22.5
2018-09-18T03:10:55.156Z,22.4
2018-09-18T03:20:57.260Z,22.4
2018-09-18T03:30:59.111Z,22.4
2018-09-18T03:41:00.476Z,22.4
2018-09-18T03:51:02.311Z,22.4
2018-09-18T04:01:04.453Z,22.4
2018-09-18T04:11:05.723Z,22.4
2018-09-18T04:21:07.530Z,22.4
2018-09-18T04:31:09.526Z,22.3
2018-09-18T04:41:11.149Z,22.3
2018-09-18T04:51:13.056Z,22.4
2018-09-18T05:01:14.530Z,22.4
2018-09-18T05:11:16.054Z,22.4
2018-09-18T05:21:18.011Z,22.4
2018-09-18T05:31:19.954Z,22.5
2018-09-18T05:41:22.193Z,22.6
2018-09-18T05:51:24.048Z,22.6
2018-09-18T06:01:26.042Z,22.7
2018-09-18T06:11:27.913Z,22.7
2018-09-18T06:21:29.670Z,22.6
2018-09-18T06:31:31.732Z,22.4
2018-09-18T06:41:33.759Z,22.4
2018-09-18T06:51:35.751Z,22.5
2018-09-18T07:01:37.559Z,22.5
2018-09-18T07:11:39.629Z,22.5
2018-09-18T07:21:41.134Z,22.5
2018-09-18T07:31:43.197Z,22.5
2018-09-18T07:41:45.059Z,22.6
2018-09-18T07:51:46.920Z,22.9
2018-09-18T08:01:49.107Z,23.1
2018-09-18T08:11:51.183Z,23.3
2018-09-18T08:21:53.412Z,23.4
2018-09-18T08:31:55.738Z,23.5
2018-09-18T08:41:57.461Z,23.6
2018-09-18T08:51:59.761Z,23.7
2018-09-18T09:02:01.426Z,23.8
2018-09-18T09:12:03.482Z,23.8
2018-09-18T09:22:06.105Z,23.8
2018-09-18T09:32:08.272Z,23.8
2018-09-18T09:42:10.363Z,24
2018-09-18T09:52:12.120Z,24
2018-09-18T10:02:14.331Z,24
2018-09-18T10:12:16.341Z,24.1
2018-09-18T10:22:17.704Z,24.2
2018-09-18T10:32:19.484Z,24.4
2018-09-18T10:42:21.372Z,24.2
2018-09-18T10:52:24.139Z,24.4
2018-09-18T11:02:26.022Z,24.3
2018-09-18T11:12:28.098Z,24.4
2018-09-18T11:22:30.091Z,24.4
2018-09-18T11:32:31.977Z,24.5
2018-09-18T11:42:33.310Z,24.4
2018-09-18T11:52:36.058Z,24.6
2018-09-18T12:02:38.346Z,24.5
2018-09-18T12:12:40.049Z,24.4
2018-09-18T12:22:41.475Z,24.4
2018-09-18T12:32:43.522Z,24.4
2018-09-18T12:42:45.366Z,24.3
2018-09-18T12:52:46.638Z,24.4
2018-09-18T13:02:48.436Z,24.3
2018-09-18T13:12:50.411Z,24.3
2018-09-18T13:22:52.363Z,24.4
2018-09-18T13:32:54.086Z,24.4
2018-09-18T13:42:56.406Z,24.5
2018-09-18T13:52:57.691Z,24.5
2018-09-18T14:03:00.083Z,24.5
2018-09-18T14:13:01.884Z,24.5
2018-09-18T14:23:03.987Z,24.6
2018-09-18T14:33:05.933Z,24.6
2018-09-18T14:43:07.670Z,24.6
2018-09-18T14:53:09.302Z,24.6
2018-09-18T15:03:10.904Z,24.6
2018-09-18T15:13:12.614Z,24.6
2018-09-18T15:23:14.271Z,24.7
2018-09-18T15:33:16.556Z,24.7
2018-09-18T15:43:18.385Z,24.7
2018-09-18T15:53:20.148Z,24.8
2018-09-18T16:03:22.420Z,24.9
2018-09-18T16:13:24.270Z,24.9
2018-09-18T16:23:26.223Z,25
2018-09-18T16:33:28.039Z,25
2018-09-18T16:43:29.437Z,25
2018-09-18T16:53:31.451Z,25
2018-09-18T17:03:33.652Z,25.1
2018-09-18T17:13:35.444Z,25.1
2018-09-18T17:23:37.439Z,25.2
2018-09-18T17:33:39.341Z,25.2
2018-09-18T17:43:41.041Z,25.2
2018-09-18T17:53:43.252Z,25.3
2018-09-18T18:03:45.286Z,25.3
2018-09-18T18:13:47.316Z,25.3
2018-09-18T18:23:49.497Z,25.3
2018-09-18T18:33:51.307Z,25.5
2018-09-18T18:43:53.060Z,25.4
2018-09-18T18:53:54.644Z,25.4
2018-09-18T19:03:56.296Z,25.4
2018-09-18T19:13:58.349Z,25.4
2018-09-18T19:24:00.803Z,25.5
2018-09-18T19:34:02.619Z,25.5
2018-09-18T19:44:03.973Z,25.5
2018-09-18T19:54:05.961Z,25.5
2018-09-18T20:04:08.065Z,25.4
2018-09-18T20:14:10.447Z,25.3
2018-09-18T20:24:12.303Z,25.3
2018-09-18T20:34:14.110Z,25.3
2018-09-18T20:44:16.008Z,25.2
2018-09-18T20:54:18.102Z,25.1
2018-09-18T21:04:20.318Z,25
2018-09-18T21:14:22.057Z,25
2018-09-18T21:24:23.654Z,24.9
2018-09-18T21:34:25.418Z,24.9
2018-09-18T21:44:27.163Z,24.8
2018-09-18T21:54:28.944Z,24.6
2018-09-18T22:04:30.628Z,24.6
2018-09-18T22:14:32.606Z,24.5
2018-09-18T22:24:34.564Z,24.5
2018-09-18T22:34:36.637Z,24.4
2018-09-18T22:44:38.159Z,24.4
2018-09-18T22:54:40.162Z,24.3
2018-09-18T23:04:41.991Z,24.3
2018-09-18T23:14:44.299Z,24.2
2018-09-18T23:24:45.571Z,24.2
2018-09-18T23:34:47.422Z,24.1
2018-09-18T23:44:49.021Z,24.1
2018-09-18T23:54:50.783Z,24.1
